S/y Loa — XPE3177 — position and weather

sailwx.info

Track history (hours):
 
Tides and Currents Weather Stations Pressure Air Temp Water Temp Dewpoint Dewpoint Depression Visibility Wind Speed Wind Dir Waves Ship Positions

S/y Loa

Last reported at 2017-Sep-25 09:53 UTC. Time now 2017-Oct-18 02:30 UTC.
Position N 38°33' W 009°24'.
Warning: this ship's position is 22 days out of date.

Length 1 m.

Type: Sailing vessel. MMSI: 219015369.

Date/timePositionNaut miles runAvg speedWind from/ knotsBaromVisibWave heightAir tempDewpointWater temp
2017-Sep-25 09:53N 38°33' W 009°24'2 4.5
2017-Sep-25 09:30N 38°35' W 009°23'2 4.1
2017-Sep-25 08:58N 38°37' W 009°22'3 5.4
2017-Sep-25 08:27N 38°39' W 009°19'3 5.8
2017-Sep-25 07:59N 38°41' W 009°17'  
2017-Sep-21 19:58N 38°42' W 009°25'0 0.0
2017-Sep-21 07:58N 38°42' W 009°25'0 0.0
2017-Sep-20 19:58N 38°42' W 009°25'0 0.0
2017-Sep-20 19:22N 38°42' W 009°25'0 0.0
2017-Sep-20 18:58N 38°42' W 009°25'0 0.0
2017-Sep-20 16:58N 38°42' W 009°25'0 0.0
2017-Sep-20 13:07N 38°42' W 009°25'0 0.0
2017-Sep-20 07:46N 38°42' W 009°25'0 0.0
2017-Sep-20 05:58N 38°42' W 009°25'0 0.0
2017-Sep-20 00:43N 38°42' W 009°25'0 0.0
2017-Sep-19 18:58N 38°42' W 009°25'0 0.0
2017-Sep-19 12:58N 38°42' W 009°25'0 0.0
2017-Sep-19 11:07N 38°42' W 009°25'0 0.0
2017-Sep-19 10:43N 38°42' W 009°25'0 0.0
2017-Sep-19 10:28N 38°42' W 009°25'0 0.0
2017-Sep-19 02:19N 38°42' W 009°25'0 0.0
2017-Sep-18 21:58N 38°42' W 009°25'0 0.0
2017-Sep-18 21:13N 38°42' W 009°25'0 0.0
2017-Sep-18 20:58N 38°42' W 009°25'0 0.0
2017-Sep-18 20:19N 38°42' W 009°25'0 0.0
2017-Sep-18 10:58N 38°42' W 009°25'0 0.0
2017-Sep-18 09:43N 38°42' W 009°25'0 0.0
2017-Sep-18 09:25N 38°42' W 009°25'0 0.0
2017-Sep-18 08:58N 38°42' W 009°25'0 0.0
2017-Sep-18 07:43N 38°42' W 009°25'0 0.0
2017-Sep-18 04:55N 38°42' W 009°25'0 0.0
2017-Sep-18 03:58N 38°42' W 009°25'0 0.0
2017-Sep-18 02:58N 38°42' W 009°25'0 0.0
2017-Sep-17 20:43N 38°42' W 009°25'0 0.0
2017-Sep-17 20:19N 38°42' W 009°25'0 0.0
2017-Sep-17 19:07N 38°42' W 009°25'0 0.0
2017-Sep-17 18:58N 38°42' W 009°25'0 0.0
2017-Sep-17 07:40N 38°42' W 009°25'9 0.5
2017-Sep-16 13:55N 38°48' W 009°33'3 6.0
2017-Sep-16 13:27N 38°51' W 009°33'4 5.4
2017-Sep-16 12:45N 38°54' W 009°32'1 5.1
2017-Sep-16 12:30N 38°56' W 009°32'3 5.0
2017-Sep-16 11:58N 38°58' W 009°32'3 5.4
2017-Sep-16 11:30N 39°01' W 009°32'3 4.9
2017-Sep-16 10:56N 39°03' W 009°29'  
Track history (hours):
 
Tides and Currents Weather Stations Pressure Air Temp Water Temp Dewpoint Dewpoint Depression Visibility Wind Speed Wind Dir Waves Ship Positions

S/y Loa

Last reported at 2017-Sep-25 09:53 UTC. Time now 2017-Oct-18 02:30 UTC.
Position N 38°33' W 009°24'.
Warning: this ship's position is 22 days out of date.

Length 1 m.

Type: Sailing vessel. MMSI: 219015369.

Date/timePositionNaut miles runAvg speedWind from/ knotsBaromVisibWave heightAir tempDewpointWater temp
2017-Sep-25 09:53N 38°33' W 009°24'2 4.5
2017-Sep-25 09:30N 38°35' W 009°23'2 4.1
2017-Sep-25 08:58N 38°37' W 009°22'3 5.4
2017-Sep-25 08:27N 38°39' W 009°19'3 5.8
2017-Sep-25 07:59N 38°41' W 009°17'  
2017-Sep-21 19:58N 38°42' W 009°25'0 0.0
2017-Sep-21 07:58N 38°42' W 009°25'0 0.0
2017-Sep-20 19:58N 38°42' W 009°25'0 0.0
2017-Sep-20 19:22N 38°42' W 009°25'0 0.0
2017-Sep-20 18:58N 38°42' W 009°25'0 0.0
2017-Sep-20 16:58N 38°42' W 009°25'0 0.0
2017-Sep-20 13:07N 38°42' W 009°25'0 0.0
2017-Sep-20 07:46N 38°42' W 009°25'0 0.0
2017-Sep-20 05:58N 38°42' W 009°25'0 0.0
2017-Sep-20 00:43N 38°42' W 009°25'0 0.0
2017-Sep-19 18:58N 38°42' W 009°25'0 0.0
2017-Sep-19 12:58N 38°42' W 009°25'0 0.0
2017-Sep-19 11:07N 38°42' W 009°25'0 0.0
2017-Sep-19 10:43N 38°42' W 009°25'0 0.0
2017-Sep-19 10:28N 38°42' W 009°25'0 0.0
2017-Sep-19 02:19N 38°42' W 009°25'0 0.0
2017-Sep-18 21:58N 38°42' W 009°25'0 0.0
2017-Sep-18 21:13N 38°42' W 009°25'0 0.0
2017-Sep-18 20:58N 38°42' W 009°25'0 0.0
2017-Sep-18 20:19N 38°42' W 009°25'0 0.0
2017-Sep-18 10:58N 38°42' W 009°25'0 0.0
2017-Sep-18 09:43N 38°42' W 009°25'0 0.0
2017-Sep-18 09:25N 38°42' W 009°25'0 0.0
2017-Sep-18 08:58N 38°42' W 009°25'0 0.0
2017-Sep-18 07:43N 38°42' W 009°25'0 0.0
2017-Sep-18 04:55N 38°42' W 009°25'0 0.0
2017-Sep-18 03:58N 38°42' W 009°25'0 0.0
2017-Sep-18 02:58N 38°42' W 009°25'0 0.0
2017-Sep-17 20:43N 38°42' W 009°25'0 0.0
2017-Sep-17 20:19N 38°42' W 009°25'0 0.0
2017-Sep-17 19:07N 38°42' W 009°25'0 0.0
2017-Sep-17 18:58N 38°42' W 009°25'0 0.0
2017-Sep-17 07:40N 38°42' W 009°25'9 0.5
2017-Sep-16 13:55N 38°48' W 009°33'3 6.0
2017-Sep-16 13:27N 38°51' W 009°33'4 5.4
2017-Sep-16 12:45N 38°54' W 009°32'1 5.1
2017-Sep-16 12:30N 38°56' W 009°32'3 5.0
2017-Sep-16 11:58N 38°58' W 009°32'3 5.4
2017-Sep-16 11:30N 39°01' W 009°32'3 4.9
2017-Sep-16 10:56N 39°03' W 009°29'  

Dump ship's entire track history